Algoa, TX

3:26 AM CST on March 03, 2015 (GMT -0600)
Ellington | Change Station
CLOSE
Current Station
Airport
Location: Ellington Field,
Elevation: 33 ft
Nearby Weather Stations
Active Advisory: Dense Fog Advisory

Elev 33 ft 29.61 °N, 95.16 °W | Updated 36 minutes ago

Fog
Fog
57 °F
Feels Like 57 °F
N
5
Wind Variable Wind from East

Today
High -- | Low -- °F
--% Chance of Precip.
Yesterday
High -- | Low -- °F
Precip. -- in
6:44 AM 6:21 PM
Waxing Gibbous, 95% visible
Pressure 30.10 in
Visibility 0.2 miles
Clouds
Dew Point 57 °F
Humidity 100%
Rainfall 0.00 in
Snow Depth Not available.
UV Not available.
Pollen 6.60 out of 12
Air Quality Not available.
Flu Activity Not available.
METAR KEFD 030850Z 09004KT 1/4SM FG VV002 14/14 A3010

More Conditions Fewer Conditions

Pressure 30.10 in
Visibility 0.2 miles
Clouds
Dew Point 57 °F
Humidity 100%
Rainfall 0.00 in
Snow Depth Not available.
UV Not available.
Pollen 6.60 out of 12
Air Quality Not available.
Flu Activity Not available.
METAR KEFD 030850Z 09004KT 1/4SM FG VV002 14/14 A3010

More Conditions Fewer Conditions

10-Day Weather Forecast

Almanac

Astronomy

Mar. 03, 2015 Rise Set
Actual Time
Civil Twilight
Nautical Twilight
Astronomical Twilight
Moon
Length of Visible Light
Length of Day
Tomorrow will be .
, % of the Moon is Illuminated

Today's Extremes

State Highs State Lows

Community

WunderPhotos

Upload Photos

1,802,075 photos uploaded!

WunderBlogs® & News

Nearby

Air Quality

  Air Quality AQ Index Pollutant
Not available.

Snow Depth

Station Depth Elevation

Earthquake Activity

City Distance Mag. Time & Date
Minimum magnitude displayed is 2.5.

Coastal Water Temperatures

Place Temperature

Nearby Weather Stations

Dense Fog Advisory
Statement as of 6:26 PM CST on March 02, 2015

... Dense fog advisory in effect until 10 am CST Tuesday...

The National Weather Service in Houston/Galveston has issued a
dense fog advisory... which is in effect until 10 am CST Tuesday.

* Event... dense fog with visibilities of less than 1/4 mile.

* Timing... beginning near the coast early this evening then
becoming more widespread inland through late evening. Improving
after 9 am.

* Impact... motorists should expect delays and drive with
additional caution.

Precautionary/preparedness actions...

A dense fog advisory means visibilities will frequently be
reduced to less than one quarter mile. If driving... slow down...
use your headlights... and leave plenty of distance ahead of you.